createdAt,value
2018-08-23T00:03:43.000Z,57.9
2018-08-23T00:13:43.000Z,58.2
2018-08-23T00:23:44.000Z,58.5
2018-08-23T00:33:44.000Z,58.6
2018-08-23T00:43:44.000Z,58.5
2018-08-23T00:53:45.000Z,58.5
2018-08-23T01:03:44.000Z,58.5
2018-08-23T01:13:44.000Z,58.7
2018-08-23T01:23:44.000Z,58.7
2018-08-23T01:33:44.000Z,58.5
2018-08-23T01:43:44.000Z,58.4
2018-08-23T01:53:44.000Z,58.3
2018-08-23T02:03:44.000Z,58.2
2018-08-23T02:13:44.000Z,58.1
2018-08-23T02:23:44.000Z,58.1
2018-08-23T02:33:44.000Z,58
2018-08-23T02:43:44.000Z,58.2
2018-08-23T02:53:44.000Z,58.3
2018-08-23T03:03:44.000Z,58.6
2018-08-23T03:13:44.000Z,58.4
2018-08-23T03:23:44.000Z,58.4
2018-08-23T03:33:44.000Z,58.4
2018-08-23T03:43:44.000Z,58.5
2018-08-23T03:53:44.000Z,58.5
2018-08-23T04:03:44.000Z,58.3
2018-08-23T04:23:44.000Z,58.5
2018-08-23T04:33:44.000Z,58.4
2018-08-23T04:43:44.000Z,58.3
2018-08-23T04:53:44.000Z,58.4
2018-08-23T05:03:44.000Z,58.7
2018-08-23T05:13:44.000Z,58.7
2018-08-23T05:23:44.000Z,58.6
2018-08-23T05:33:44.000Z,58.3
2018-08-23T05:43:44.000Z,58.1
2018-08-23T05:53:44.000Z,57.9
2018-08-23T06:03:44.000Z,58
2018-08-23T06:13:44.000Z,57.4
2018-08-23T06:23:44.000Z,56.3
2018-08-23T06:33:44.000Z,56.4
2018-08-23T06:43:44.000Z,56.6
2018-08-23T06:53:44.000Z,56.7
2018-08-23T07:03:45.000Z,56.7
2018-08-23T07:13:45.000Z,56.7
2018-08-23T07:23:45.000Z,56.6
2018-08-23T07:33:45.000Z,56.6
2018-08-23T07:43:45.000Z,56.6
2018-08-23T07:53:45.000Z,56.8
2018-08-23T08:03:45.000Z,56.8
2018-08-23T08:13:45.000Z,54.7
2018-08-23T08:23:45.000Z,55
2018-08-23T08:33:45.000Z,54.8
2018-08-23T08:43:45.000Z,54.8
2018-08-23T08:53:45.000Z,54.4
2018-08-23T09:03:45.000Z,54.3
2018-08-23T09:13:45.000Z,54
2018-08-23T09:23:45.000Z,53.3
2018-08-23T09:33:45.000Z,53.3
2018-08-23T09:43:45.000Z,53.1
2018-08-23T09:53:45.000Z,52.7
2018-08-23T10:03:45.000Z,52.7
2018-08-23T10:13:45.000Z,53.1
2018-08-23T10:23:45.000Z,52.9
2018-08-23T10:33:45.000Z,52.9
2018-08-23T10:43:45.000Z,53.1
2018-08-23T10:53:45.000Z,53.1
2018-08-23T11:03:45.000Z,52.9
2018-08-23T11:13:45.000Z,52.8
2018-08-23T11:23:45.000Z,52.8
2018-08-23T11:33:45.000Z,52.6
2018-08-23T11:43:45.000Z,52.6
2018-08-23T11:53:45.000Z,52.5
2018-08-23T12:03:45.000Z,52.5
2018-08-23T12:13:45.000Z,52.2
2018-08-23T12:23:45.000Z,52.2
2018-08-23T12:33:45.000Z,52.1
2018-08-23T12:43:45.000Z,52.1
2018-08-23T12:53:45.000Z,51.9
2018-08-23T13:03:46.000Z,51.8
2018-08-23T13:13:45.000Z,52
2018-08-23T13:23:45.000Z,52
2018-08-23T13:33:45.000Z,52
2018-08-23T13:43:45.000Z,52
2018-08-23T13:53:46.000Z,52
2018-08-23T14:03:46.000Z,52
2018-08-23T14:13:46.000Z,51.9
2018-08-23T14:23:46.000Z,51.7
2018-08-23T14:33:46.000Z,51.6
2018-08-23T14:43:46.000Z,51.5
2018-08-23T14:53:46.000Z,51.2
2018-08-23T15:03:46.000Z,51.1
2018-08-23T15:13:46.000Z,50.8
2018-08-23T15:23:46.000Z,50.6
2018-08-23T15:33:46.000Z,50.7
2018-08-23T15:43:46.000Z,50.7
2018-08-23T15:53:46.000Z,50.7
2018-08-23T16:03:46.000Z,50.7
2018-08-23T16:13:46.000Z,50.7
2018-08-23T16:23:46.000Z,50.8
2018-08-23T16:33:46.000Z,50.6
2018-08-23T16:43:46.000Z,50.6
2018-08-23T16:53:46.000Z,50.6
2018-08-23T17:03:46.000Z,50.5
2018-08-23T17:13:46.000Z,50.5
2018-08-23T17:23:46.000Z,50.6
2018-08-23T17:33:46.000Z,50.7
2018-08-23T17:43:46.000Z,50.7
2018-08-23T17:53:46.000Z,50.6
2018-08-23T18:03:46.000Z,50.6
2018-08-23T18:13:46.000Z,49.5
2018-08-23T18:23:46.000Z,49.2
2018-08-23T18:33:46.000Z,49.1
2018-08-23T18:43:46.000Z,49.2
2018-08-23T18:53:46.000Z,48.7
2018-08-23T19:03:46.000Z,48.2
2018-08-23T19:23:46.000Z,48.1
2018-08-23T19:33:46.000Z,48.1
2018-08-23T19:43:46.000Z,48.2
2018-08-23T19:53:46.000Z,48.4
2018-08-23T20:03:47.000Z,49.9
2018-08-23T20:13:46.000Z,49.5
2018-08-23T20:23:46.000Z,49
2018-08-23T20:33:47.000Z,49
2018-08-23T20:43:47.000Z,49.1
2018-08-23T20:53:47.000Z,48.5
2018-08-23T21:03:47.000Z,49.3
2018-08-23T21:13:47.000Z,49.4
2018-08-23T21:23:47.000Z,49.5
2018-08-23T21:33:47.000Z,49.5
2018-08-23T21:43:47.000Z,49.7
2018-08-23T21:53:47.000Z,49.7
2018-08-23T22:03:47.000Z,49.9
2018-08-23T22:13:47.000Z,49.9
2018-08-23T22:23:47.000Z,50.1
2018-08-23T22:33:47.000Z,50.3
2018-08-23T22:43:47.000Z,50.4
2018-08-23T22:53:47.000Z,50.4
2018-08-23T23:03:47.000Z,50.2
2018-08-23T23:13:47.000Z,50.2
2018-08-23T23:23:47.000Z,50.2
2018-08-23T23:33:47.000Z,50.5
2018-08-23T23:43:47.000Z,50.8
2018-08-23T23:53:47.000Z,50.8
